createdAt,value
2023-03-06T00:00:43.184Z,14.40
2023-03-06T00:03:11.022Z,14.65
2023-03-06T00:05:40.424Z,12.25
2023-03-06T00:08:08.347Z,13.30
2023-03-06T00:10:36.345Z,13.73
2023-03-06T00:13:05.330Z,14.73
2023-03-06T00:15:33.283Z,13.60
2023-03-06T00:18:04.938Z,15.57
2023-03-06T00:20:33.269Z,15.77
2023-03-06T00:23:02.923Z,16.45
2023-03-06T00:25:30.773Z,14.02
2023-03-06T00:27:58.776Z,13.43
2023-03-06T00:30:26.850Z,16.88
2023-03-06T00:32:54.867Z,12.13
2023-03-06T00:35:24.517Z,13.95
2023-03-06T00:37:52.368Z,12.25
2023-03-06T00:40:22.105Z,11.85
2023-03-06T00:42:50.072Z,13.55
2023-03-06T00:45:20.120Z,15.02
2023-03-06T00:47:48.007Z,12.98
2023-03-06T00:50:16.611Z,15.07
2023-03-06T00:52:44.673Z,14.15
2023-03-06T00:55:12.966Z,18.75
2023-03-06T00:57:43.041Z,15.15
2023-03-06T01:00:11.857Z,21.95
2023-03-06T01:02:39.878Z,16.50
2023-03-06T01:05:08.569Z,13.30
2023-03-06T01:07:38.198Z,14.18
2023-03-06T01:10:08.042Z,15.70
2023-03-06T01:12:36.343Z,12.35
2023-03-06T01:15:06.032Z,13.68
2023-03-06T01:17:33.938Z,15.35
2023-03-06T01:20:03.694Z,14.10
2023-03-06T01:22:31.735Z,15.52
2023-03-06T01:25:00.628Z,16.02
2023-03-06T01:27:28.412Z,14.80
2023-03-06T01:29:56.985Z,15.07
2023-03-06T01:32:26.284Z,13.98
2023-03-06T01:34:54.770Z,13.98
2023-03-06T01:37:22.719Z,17.38
2023-03-06T01:39:51.140Z,15.00
2023-03-06T01:42:19.088Z,14.90
2023-03-06T01:44:59.892Z,16.30
2023-03-06T01:47:29.270Z,15.00
2023-03-06T01:49:59.042Z,14.77
2023-03-06T01:52:28.178Z,15.68
2023-03-06T01:54:57.955Z,13.68
2023-03-06T01:57:27.405Z,13.95
2023-03-06T01:59:57.805Z,13.20
2023-03-06T02:02:25.777Z,15.38
2023-03-06T02:04:55.024Z,14.63
2023-03-06T02:07:23.043Z,15.60
2023-03-06T02:09:50.914Z,16.75
2023-03-06T02:12:20.159Z,16.85
2023-03-06T02:14:48.519Z,13.88
2023-03-06T02:17:18.060Z,12.57
2023-03-06T02:19:50.505Z,11.75
2023-03-06T02:22:21.548Z,15.98
2023-03-06T02:24:51.233Z,17.00
2023-03-06T02:27:20.752Z,13.82
2023-03-06T02:29:50.461Z,13.80
2023-03-06T02:32:18.372Z,15.43
2023-03-06T02:34:49.951Z,15.38
2023-03-06T02:37:17.887Z,14.23
2023-03-06T02:39:48.105Z,17.27
2023-03-06T02:42:20.353Z,17.02
2023-03-06T02:44:48.982Z,14.88
2023-03-06T02:47:17.270Z,15.27
2023-03-06T02:49:45.068Z,13.93
2023-03-06T02:52:13.022Z,12.05
2023-03-06T02:54:40.934Z,15.10
2023-03-06T02:57:08.977Z,12.25
2023-03-06T02:59:38.492Z,16.15
2023-03-06T03:02:07.239Z,11.55
2023-03-06T03:04:35.196Z,16.58
2023-03-06T03:07:03.877Z,17.10
2023-03-06T03:09:37.053Z,19.17
2023-03-06T03:12:06.031Z,14.65
2023-03-06T03:14:34.648Z,11.75
2023-03-06T03:17:05.188Z,11.90
2023-03-06T03:19:33.075Z,13.82
2023-03-06T03:22:00.936Z,11.55
2023-03-06T03:24:29.197Z,14.02
2023-03-06T03:26:57.119Z,12.18
2023-03-06T03:29:25.926Z,13.27
2023-03-06T03:31:54.748Z,14.77
2023-03-06T03:34:28.034Z,16.95
2023-03-06T03:36:56.548Z,15.82
2023-03-06T03:39:24.503Z,13.57
2023-03-06T03:41:52.346Z,13.57
2023-03-06T03:44:21.114Z,12.73
2023-03-06T03:46:49.917Z,17.50
2023-03-06T03:49:21.680Z,12.23
2023-03-06T03:51:51.242Z,16.73
2023-03-06T03:54:19.995Z,16.50
2023-03-06T03:56:50.114Z,15.05
2023-03-06T03:59:24.150Z,13.18
2023-03-06T04:02:18.258Z,15.32
2023-03-06T04:04:54.041Z,14.38
2023-03-06T04:07:23.631Z,19.05
2023-03-06T04:09:51.735Z,16.20
2023-03-06T04:12:20.043Z,18.60
2023-03-06T04:14:48.730Z,10.73
2023-03-06T04:17:17.233Z,14.95
2023-03-06T04:19:45.742Z,15.80
2023-03-06T04:22:13.694Z,15.10
2023-03-06T04:24:43.075Z,19.15
2023-03-06T04:27:13.708Z,18.17
2023-03-06T04:29:41.652Z,16.27
2023-03-06T04:32:09.567Z,14.95
2023-03-06T04:34:38.380Z,16.70
2023-03-06T04:37:07.444Z,15.52
2023-03-06T04:39:35.331Z,13.10
2023-03-06T04:42:05.561Z,18.17
2023-03-06T04:44:33.491Z,13.75
2023-03-06T04:47:01.330Z,15.77
2023-03-06T04:49:29.349Z,20.20
2023-03-06T04:51:57.220Z,15.93
2023-03-06T04:54:25.161Z,19.38
2023-03-06T04:56:53.040Z,15.57
2023-03-06T04:59:22.383Z,15.93
2023-03-06T05:01:50.339Z,22.00
2023-03-06T05:04:18.225Z,17.15
2023-03-06T05:06:46.125Z,18.70
2023-03-06T05:09:14.711Z,19.67
2023-03-06T05:11:42.593Z,21.27
2023-03-06T05:14:13.239Z,16.45
2023-03-06T05:16:42.670Z,18.60
2023-03-06T05:19:10.710Z,18.33
2023-03-06T05:21:38.734Z,21.88
2023-03-06T05:24:06.948Z,19.08
2023-03-06T05:26:34.967Z,20.27
2023-03-06T05:29:02.840Z,21.30
2023-03-06T05:31:30.844Z,19.80
2023-03-06T05:34:00.802Z,20.35
2023-03-06T05:36:28.798Z,16.42
2023-03-06T05:38:57.250Z,21.80
2023-03-06T05:41:25.427Z,19.80
2023-03-06T05:43:53.917Z,18.42
2023-03-06T05:46:24.361Z,22.20
2023-03-06T05:48:53.254Z,20.30
2023-03-06T05:51:22.523Z,38.40
2023-03-06T05:53:50.738Z,26.77
2023-03-06T05:56:19.177Z,20.92
2023-03-06T05:58:47.597Z,19.90
2023-03-06T06:01:16.327Z,22.20
2023-03-06T06:03:44.556Z,18.23
2023-03-06T06:06:14.009Z,19.45
2023-03-06T06:08:45.597Z,20.98
2023-03-06T06:11:14.729Z,21.63
2023-03-06T06:13:42.750Z,20.60
2023-03-06T06:16:11.600Z,24.27
2023-03-06T06:18:41.408Z,17.80
2023-03-06T06:21:10.285Z,18.55
2023-03-06T06:23:38.322Z,19.27
2023-03-06T06:26:08.667Z,16.73
2023-03-06T06:28:37.575Z,20.58
2023-03-06T06:31:09.085Z,18.42
2023-03-06T06:33:37.091Z,17.83
2023-03-06T06:36:08.334Z,19.75
2023-03-06T06:38:36.297Z,20.52
2023-03-06T06:41:35.583Z,62.85
2023-03-06T06:43:53.992Z,23.80
2023-03-06T06:46:59.279Z,18.40
2023-03-06T06:49:10.213Z,20.88
2023-03-06T06:51:38.452Z,26.58
2023-03-06T06:54:06.363Z,23.20
2023-03-06T06:56:34.349Z,21.42
2023-03-06T06:59:16.132Z,29.88
2023-03-06T07:01:44.852Z,20.48
2023-03-06T07:04:13.349Z,23.77
2023-03-06T07:06:41.337Z,27.90
2023-03-06T07:09:09.223Z,21.38
2023-03-06T07:11:38.300Z,23.85
2023-03-06T07:14:07.572Z,22.50
2023-03-06T07:16:35.520Z,29.30
2023-03-06T07:19:04.346Z,28.13
2023-03-06T07:21:32.241Z,23.23
2023-03-06T07:24:01.955Z,20.85
2023-03-06T07:26:32.777Z,21.08
2023-03-06T07:29:02.480Z,25.02
2023-03-06T07:31:32.067Z,33.35
2023-03-06T07:34:00.218Z,25.70
2023-03-06T07:36:28.741Z,45.25
2023-03-06T07:38:56.610Z,45.92
2023-03-06T07:41:26.266Z,71.72
2023-03-06T07:43:54.621Z,26.15
2023-03-06T07:46:24.589Z,25.92
2023-03-06T07:48:53.813Z,29.65
2023-03-06T07:51:22.517Z,33.47
2023-03-06T07:53:50.780Z,25.00
2023-03-06T07:56:18.667Z,26.65
2023-03-06T07:58:47.259Z,34.22
2023-03-06T08:01:16.693Z,23.10
2023-03-06T08:03:44.613Z,39.38
2023-03-06T08:06:17.334Z,31.98
2023-03-06T08:08:46.476Z,28.95
2023-03-06T08:11:16.176Z,28.42
2023-03-06T08:13:44.372Z,35.13
2023-03-06T08:16:12.673Z,30.10
2023-03-06T08:18:40.726Z,29.20
2023-03-06T08:21:09.523Z,30.48
2023-03-06T08:23:38.830Z,27.08
2023-03-06T08:26:07.891Z,33.30
2023-03-06T08:28:36.056Z,34.45
2023-03-06T08:31:12.292Z,31.88
2023-03-06T08:33:40.748Z,30.13
2023-03-06T08:36:08.879Z,31.75
2023-03-06T08:38:38.162Z,26.33
2023-03-06T08:41:11.143Z,22.02
2023-03-06T08:43:39.295Z,24.63
2023-03-06T08:46:07.219Z,27.73
2023-03-06T08:48:35.190Z,21.60
2023-03-06T08:51:03.476Z,32.85
2023-03-06T08:53:42.740Z,35.75
2023-03-06T08:56:18.318Z,20.77
2023-03-06T08:58:46.344Z,34.72
2023-03-06T09:01:14.850Z,27.33
2023-03-06T09:03:42.723Z,30.48
2023-03-06T09:06:10.543Z,38.92
2023-03-06T09:08:38.406Z,38.90
2023-03-06T09:11:06.384Z,30.40
2023-03-06T09:13:35.612Z,30.55
2023-03-06T09:16:03.507Z,36.05
2023-03-06T09:18:31.434Z,36.55
2023-03-06T09:20:59.278Z,42.75
2023-03-06T09:23:27.103Z,39.80
2023-03-06T09:25:55.293Z,32.00
2023-03-06T09:28:23.629Z,29.23
2023-03-06T09:30:53.159Z,30.17
2023-03-06T09:33:21.494Z,32.22
2023-03-06T09:35:50.969Z,32.53
2023-03-06T09:38:18.858Z,28.20
2023-03-06T09:40:56.441Z,26.23
2023-03-06T09:43:27.263Z,27.40
2023-03-06T09:45:56.731Z,29.20
2023-03-06T09:48:30.939Z,24.83
2023-03-06T09:51:02.566Z,43.97
2023-03-06T09:53:39.279Z,27.48
2023-03-06T09:56:08.348Z,26.77
2023-03-06T09:58:39.247Z,30.63
2023-03-06T10:01:16.476Z,27.90
2023-03-06T10:03:49.382Z,29.73
2023-03-06T10:06:19.557Z,28.73
2023-03-06T10:08:50.344Z,34.90
2023-03-06T10:11:20.970Z,33.10
2023-03-06T10:13:51.505Z,26.10
2023-03-06T10:16:23.771Z,29.88
2023-03-06T10:18:51.736Z,23.77
2023-03-06T10:21:24.160Z,24.80
2023-03-06T10:23:54.174Z,29.60
2023-03-06T10:26:25.290Z,30.27
2023-03-06T10:28:58.205Z,31.88
2023-03-06T10:31:28.602Z,22.50
2023-03-06T10:33:57.530Z,33.90
2023-03-06T10:36:27.663Z,31.23
2023-03-06T10:38:56.435Z,27.45
2023-03-06T10:41:25.704Z,30.23
2023-03-06T10:44:13.078Z,31.52
2023-03-06T10:46:43.082Z,32.25
2023-03-06T10:49:23.566Z,32.08
2023-03-06T10:51:57.453Z,29.95
2023-03-06T10:54:28.416Z,36.97
2023-03-06T10:57:03.906Z,23.80
2023-03-06T10:59:31.837Z,32.72
2023-03-06T11:02:21.084Z,33.60
2023-03-06T11:04:54.926Z,34.78
2023-03-06T11:07:24.206Z,28.52
2023-03-06T11:10:03.897Z,27.92
2023-03-06T11:12:33.250Z,31.25
2023-03-06T11:15:14.259Z,51.40
2023-03-06T11:17:51.768Z,37.70
2023-03-06T11:20:20.312Z,36.47
2023-03-06T11:22:49.430Z,31.73
2023-03-06T11:25:19.237Z,30.95
2023-03-06T11:27:48.340Z,29.52
2023-03-06T11:30:19.660Z,26.42
2023-03-06T11:32:50.513Z,30.48
2023-03-06T11:35:22.680Z,31.77
2023-03-06T11:37:54.080Z,27.13
2023-03-06T11:40:25.013Z,30.35
2023-03-06T11:42:57.115Z,25.35
2023-03-06T11:45:31.977Z,29.67
2023-03-06T11:48:02.914Z,26.20
2023-03-06T11:50:35.903Z,31.13
2023-03-06T11:53:05.259Z,31.88
2023-03-06T11:55:40.138Z,38.58
2023-03-06T11:58:23.315Z,28.50
2023-03-06T12:00:54.356Z,28.63
2023-03-06T12:03:32.799Z,26.60
2023-03-06T12:06:05.247Z,25.90
2023-03-06T12:08:39.516Z,21.63
2023-03-06T12:11:11.391Z,33.72
2023-03-06T12:13:43.850Z,35.90
2023-03-06T12:16:26.607Z,28.08
2023-03-06T12:18:57.607Z,30.33
2023-03-06T12:21:32.279Z,30.25
2023-03-06T12:24:16.578Z,31.08
2023-03-06T12:26:55.887Z,31.10
2023-03-06T12:29:29.630Z,30.55
2023-03-06T12:32:02.527Z,35.35
2023-03-06T12:34:40.671Z,28.98
2023-03-06T12:37:18.908Z,27.85
2023-03-06T12:39:58.050Z,31.63
2023-03-06T12:42:35.417Z,31.08
2023-03-06T12:45:26.890Z,31.80
2023-03-06T12:47:56.570Z,26.13
2023-03-06T12:50:26.586Z,40.40
2023-03-06T12:52:57.296Z,26.42
2023-03-06T12:55:26.130Z,29.73
2023-03-06T12:57:54.563Z,31.33
2023-03-06T13:00:40.932Z,25.77
2023-03-06T13:03:15.984Z,29.23
2023-03-06T13:06:06.605Z,35.67
2023-03-06T13:08:58.643Z,36.83
2023-03-06T13:11:36.530Z,30.75
2023-03-06T13:14:20.792Z,31.98
2023-03-06T13:16:54.534Z,35.25
2023-03-06T13:19:24.551Z,30.15
2023-03-06T13:22:10.437Z,31.30
2023-03-06T13:24:38.804Z,30.65
2023-03-06T13:27:09.635Z,28.05
2023-03-06T13:30:01.857Z,38.78
2023-03-06T13:32:32.125Z,33.65
2023-03-06T13:35:00.200Z,27.67
2023-03-06T13:37:38.056Z,29.83
2023-03-06T13:40:23.562Z,34.65
2023-03-06T13:43:02.889Z,28.38
2023-03-06T13:45:36.460Z,24.17
2023-03-06T13:48:30.352Z,30.60
2023-03-06T13:50:53.657Z,29.67
2023-03-06T13:53:31.612Z,27.38
2023-03-06T13:56:31.748Z,29.90
2023-03-06T13:59:08.124Z,28.40
2023-03-06T14:01:50.530Z,30.65
2023-03-06T14:04:48.672Z,30.23
2023-03-06T14:07:27.880Z,33.50
2023-03-06T14:10:04.903Z,33.47
2023-03-06T14:12:34.504Z,31.92
2023-03-06T14:15:07.019Z,33.88
2023-03-06T14:17:36.064Z,34.03
2023-03-06T14:20:06.960Z,36.75
2023-03-06T14:22:38.874Z,29.55
2023-03-06T14:25:09.191Z,32.50
2023-03-06T14:27:40.989Z,33.08
2023-03-06T14:30:14.065Z,29.40
2023-03-06T14:32:42.206Z,33.00
2023-03-06T14:35:21.381Z,33.10
2023-03-06T14:37:50.164Z,33.78
2023-03-06T14:40:20.979Z,35.95
2023-03-06T14:42:48.977Z,37.65
2023-03-06T14:45:19.222Z,29.92
2023-03-06T14:47:50.754Z,38.42
2023-03-06T14:50:19.589Z,31.48
2023-03-06T14:52:47.732Z,36.58
2023-03-06T14:55:19.046Z,34.65
2023-03-06T14:57:48.194Z,33.60
2023-03-06T15:00:17.584Z,34.53
2023-03-06T15:02:50.233Z,30.38
2023-03-06T15:05:21.844Z,33.55
2023-03-06T15:07:50.999Z,39.03
2023-03-06T15:10:24.294Z,33.78
2023-03-06T15:12:52.318Z,32.15
2023-03-06T15:15:30.588Z,31.30
2023-03-06T15:20:46.673Z,42.65
2023-03-06T15:23:19.014Z,40.00
2023-03-06T15:25:54.678Z,36.30
2023-03-06T15:28:31.672Z,31.33
2023-03-06T15:31:04.537Z,33.83
2023-03-06T15:33:33.100Z,37.30
2023-03-06T15:36:03.854Z,31.13
2023-03-06T15:38:35.304Z,35.95
2023-03-06T15:41:04.405Z,36.03
2023-03-06T15:43:35.115Z,31.40
2023-03-06T15:46:05.684Z,33.67
2023-03-06T15:48:34.070Z,35.83
2023-03-06T15:51:03.816Z,36.92
2023-03-06T15:53:31.912Z,33.17
2023-03-06T15:56:00.611Z,38.05
2023-03-06T15:58:30.351Z,39.25
2023-03-06T16:00:58.390Z,32.67
2023-03-06T16:03:29.023Z,38.08
2023-03-06T16:06:00.290Z,32.80
2023-03-06T16:08:30.011Z,39.30
2023-03-06T16:10:58.233Z,35.70
2023-03-06T16:13:27.701Z,30.95
2023-03-06T16:15:55.971Z,31.15
2023-03-06T16:18:24.253Z,28.70
2023-03-06T16:20:52.168Z,32.85
2023-03-06T16:23:20.152Z,34.72
2023-03-06T16:25:49.952Z,30.55
2023-03-06T16:28:18.082Z,29.50
2023-03-06T16:30:46.477Z,27.50
2023-03-06T16:33:14.845Z,29.27
2023-03-06T16:35:44.594Z,35.17
2023-03-06T16:38:15.771Z,33.17
2023-03-06T16:40:44.013Z,32.70
2023-03-06T16:43:16.192Z,36.33
2023-03-06T16:45:45.134Z,35.92
2023-03-06T16:48:17.950Z,30.85
2023-03-06T16:50:46.061Z,29.15
2023-03-06T16:53:16.480Z,29.25
2023-03-06T16:55:44.675Z,27.67
2023-03-06T16:58:14.017Z,28.67
2023-03-06T17:00:42.046Z,28.60
2023-03-06T17:03:09.969Z,28.48
2023-03-06T17:05:38.252Z,30.40
2023-03-06T17:08:06.316Z,33.22
2023-03-06T17:10:34.530Z,33.13
2023-03-06T17:13:02.538Z,29.02
2023-03-06T17:15:32.036Z,35.13
2023-03-06T17:18:00.665Z,34.78
2023-03-06T17:20:28.547Z,28.95
2023-03-06T17:25:48.638Z,33.22
2023-03-06T17:28:16.599Z,40.85
2023-03-06T17:30:45.908Z,26.52
2023-03-06T17:33:14.298Z,36.38
2023-03-06T17:35:42.170Z,33.22
2023-03-06T17:38:10.099Z,36.58
2023-03-06T17:43:20.123Z,33.60
2023-03-06T17:45:49.447Z,38.40
2023-03-06T17:48:17.593Z,35.60
2023-03-06T17:50:53.350Z,36.38
2023-03-06T17:53:22.101Z,38.28
2023-03-06T17:55:50.157Z,36.60
2023-03-06T17:58:18.153Z,32.55
2023-03-06T18:00:48.357Z,36.83
2023-03-06T18:03:17.882Z,35.20
2023-03-06T18:05:45.810Z,33.28
2023-03-06T18:08:13.858Z,32.40
2023-03-06T18:10:42.530Z,32.97
2023-03-06T18:13:11.211Z,28.90
2023-03-06T18:15:40.116Z,31.40
2023-03-06T18:18:08.344Z,43.38
2023-03-06T18:20:41.234Z,35.95
2023-03-06T18:23:09.527Z,32.58
2023-03-06T18:25:38.124Z,34.75
2023-03-06T18:28:06.300Z,33.55
2023-03-06T18:30:36.184Z,33.70
2023-03-06T18:33:04.163Z,33.60
2023-03-06T18:35:32.232Z,30.85
2023-03-06T18:38:03.086Z,37.25
2023-03-06T18:40:31.012Z,33.45
2023-03-06T18:43:00.566Z,38.30
2023-03-06T18:45:28.486Z,31.55
2023-03-06T18:47:56.541Z,39.67
2023-03-06T18:50:24.619Z,33.38
2023-03-06T18:52:52.587Z,35.03
2023-03-06T18:55:23.704Z,31.27
2023-03-06T18:57:51.708Z,31.92
2023-03-06T19:00:20.232Z,35.65
2023-03-06T19:02:48.302Z,33.40
2023-03-06T19:05:17.374Z,36.72
2023-03-06T19:07:45.332Z,33.78
2023-03-06T19:10:13.852Z,33.85
2023-03-06T19:12:43.162Z,39.60
2023-03-06T19:15:11.352Z,36.20
2023-03-06T19:17:39.348Z,34.00
2023-03-06T19:20:07.871Z,33.92
2023-03-06T19:22:35.818Z,35.85
2023-03-06T19:25:04.857Z,47.13
2023-03-06T19:27:32.816Z,34.22
2023-03-06T19:30:02.204Z,35.05
2023-03-06T19:32:30.136Z,33.35
2023-03-06T19:34:59.426Z,33.78
2023-03-06T19:37:27.515Z,64.43
2023-03-06T19:39:56.967Z,44.80
2023-03-06T19:42:24.947Z,35.35
2023-03-06T19:44:52.907Z,43.35
2023-03-06T19:47:22.221Z,33.35
2023-03-06T19:49:50.090Z,37.05
2023-03-06T19:52:18.351Z,34.45
2023-03-06T19:54:47.114Z,31.98
2023-03-06T19:57:15.146Z,34.90
2023-03-06T19:59:43.208Z,39.58
2023-03-06T20:02:11.307Z,42.17
2023-03-06T20:04:40.808Z,41.42
2023-03-06T20:07:08.741Z,44.92
2023-03-06T20:09:36.680Z,42.53
2023-03-06T20:12:08.110Z,40.60
2023-03-06T20:14:36.503Z,42.78
2023-03-06T20:17:04.518Z,43.30
2023-03-06T20:19:32.517Z,39.60
2023-03-06T20:22:02.075Z,37.70
2023-03-06T20:24:30.050Z,37.33
2023-03-06T20:26:59.478Z,37.50
2023-03-06T20:29:28.443Z,33.15
2023-03-06T20:31:57.172Z,38.03
2023-03-06T20:34:25.848Z,34.60
2023-03-06T20:36:54.274Z,34.17
2023-03-06T20:39:24.042Z,39.55
2023-03-06T20:41:52.191Z,37.15
2023-03-06T20:44:20.528Z,33.45
2023-03-06T20:46:48.603Z,35.65
2023-03-06T20:49:16.677Z,41.42
2023-03-06T20:51:44.655Z,39.92
2023-03-06T20:54:13.929Z,36.92
2023-03-06T20:56:46.258Z,40.83
2023-03-06T20:59:14.459Z,39.03
2023-03-06T21:01:43.384Z,36.47
2023-03-06T21:04:13.611Z,39.50
2023-03-06T21:06:42.600Z,44.60
2023-03-06T21:09:12.388Z,69.43
2023-03-06T21:11:41.016Z,58.60
2023-03-06T21:14:10.923Z,40.75
2023-03-06T21:16:38.851Z,43.17
2023-03-06T21:19:06.994Z,37.33
2023-03-06T21:21:36.196Z,38.92
2023-03-06T21:24:04.249Z,33.30
2023-03-06T21:26:33.862Z,35.38
2023-03-06T21:29:02.531Z,34.58
2023-03-06T21:31:33.519Z,45.22
2023-03-06T21:34:04.496Z,36.30
2023-03-06T21:36:33.006Z,34.95
2023-03-06T21:39:01.028Z,39.90
2023-03-06T21:41:30.422Z,42.33
2023-03-06T21:43:58.998Z,39.10
2023-03-06T21:46:27.431Z,46.42
2023-03-06T21:48:57.494Z,38.42
2023-03-06T21:51:25.935Z,35.90
2023-03-06T21:53:54.931Z,38.38
2023-03-06T21:56:25.426Z,39.25
2023-03-06T21:58:53.619Z,39.78
2023-03-06T22:01:23.317Z,36.75
2023-03-06T22:03:51.361Z,37.40
2023-03-06T22:06:21.784Z,47.22
2023-03-06T22:08:49.817Z,39.58
2023-03-06T22:11:18.699Z,37.25
2023-03-06T22:13:48.016Z,37.20
2023-03-06T22:16:16.315Z,44.03
2023-03-06T22:18:45.880Z,35.75
2023-03-06T22:21:14.940Z,41.47
2023-03-06T22:23:44.196Z,38.90
2023-03-06T22:26:13.720Z,40.83
2023-03-06T22:28:42.170Z,43.17
2023-03-06T22:31:13.794Z,35.17
2023-03-06T22:33:41.921Z,36.53
2023-03-06T22:36:11.342Z,39.67
2023-03-06T22:38:39.919Z,36.72
2023-03-06T22:41:09.827Z,34.33
2023-03-06T22:43:37.985Z,34.97
2023-03-06T22:46:07.112Z,40.00
2023-03-06T22:48:35.218Z,44.38
2023-03-06T22:51:04.014Z,40.97
2023-03-06T22:53:31.971Z,42.80
2023-03-06T22:56:00.478Z,41.20
2023-03-06T22:58:34.376Z,41.38
2023-03-06T23:01:12.559Z,39.28
2023-03-06T23:03:41.096Z,34.45
2023-03-06T23:06:10.096Z,39.97
2023-03-06T23:08:38.318Z,39.13
2023-03-06T23:11:08.980Z,39.85
2023-03-06T23:13:57.972Z,45.10
2023-03-06T23:16:44.783Z,46.35
2023-03-06T23:19:32.730Z,42.92
2023-03-06T23:22:19.309Z,42.80
2023-03-06T23:25:06.984Z,45.30
2023-03-06T23:27:36.277Z,40.70
2023-03-06T23:30:06.039Z,41.42
2023-03-06T23:32:34.227Z,40.25
2023-03-06T23:35:02.302Z,47.33
2023-03-06T23:37:30.352Z,49.53
2023-03-06T23:39:58.307Z,52.15
2023-03-06T23:42:26.128Z,47.22
2023-03-06T23:44:54.030Z,47.28
2023-03-06T23:47:23.380Z,46.40
2023-03-06T23:49:51.310Z,41.90
2023-03-06T23:52:19.288Z,45.45
2023-03-06T23:54:49.724Z,45.13
2023-03-06T23:57:17.782Z,43.08
2023-03-06T23:59:46.139Z,44.22
